Time;durP1;ratioP1;P1;durP2;ratioP2;P2;SDS_P1;SDS_P2;PMS_P1;PMS_P2;Temp;Humidity;BMP_temperature;BMP_pressure;BME280_temperature;BME280_humidity;BME280_pressure;Samples;Min_cycle;Max_cycle;Signal;HPM_P1;HPM_P2
2021/06/10 00:02:16;;;;;;;32.10;28.80;;;;;;;;;;5114570;28;20446;-73
2021/06/10 00:04:42;;;;;;;33.20;30.00;;;;;;;;;;5114498;28;20435;-73
2021/06/10 00:07:09;;;;;;;33.30;29.80;;;;;;;;;;5113938;28;20932;-74
2021/06/10 00:09:36;;;;;;;32.97;29.63;;;;;;;;;;5114382;28;20440;-73
2021/06/10 00:12:05;;;;;;;36.83;29.63;;;;;;;;;;5114355;28;20437;-74
2021/06/10 00:14:31;;;;;;;34.37;30.80;;;;;;;;;;5114281;28;20496;-73
2021/06/10 00:16:58;;;;;;;31.47;28.70;;;;;;;;;;5114395;28;20465;-72
2021/06/10 00:19:25;;;;;;;33.13;30.03;;;;;;;;;;5114028;28;20475;-71
2021/06/10 00:21:51;;;;;;;33.60;30.07;;;;;;;;;;5114237;28;20440;-72
2021/06/10 00:24:18;;;;;;;34.83;31.17;;;;;;;;;;5114172;28;20450;-72
2021/06/10 00:26:45;;;;;;;33.87;30.67;;;;;;;;;;5113626;28;20477;-72
2021/06/10 00:29:13;;;;;;;34.53;30.83;;;;;;;;;;5114160;28;20482;-71
2021/06/10 00:31:39;;;;;;;34.17;30.77;;;;;;;;;;5113825;28;20783;-71
2021/06/10 00:34:06;;;;;;;34.07;30.67;;;;;;;;;;5114037;28;20447;-71
2021/06/10 00:36:33;;;;;;;31.63;28.53;;;;;;;;;;5113723;28;20447;-71
2021/06/10 00:39:00;;;;;;;33.97;30.73;;;;;;;;;;5114593;28;20774;-72
2021/06/10 00:41:31;;;;;;;34.63;31.10;;;;;;;;;;5114021;28;20443;-72
2021/06/10 00:43:57;;;;;;;35.37;31.83;;;;;;;;;;5114285;28;20443;-72
2021/06/10 00:46:26;;;;;;;35.03;31.47;;;;;;;;;;5113711;28;20439;-72
2021/06/10 00:48:52;;;;;;;34.73;31.20;;;;;;;;;;5117415;28;20480;-72
2021/06/10 00:51:19;;;;;;;35.13;31.60;;;;;;;;;;5121572;28;20457;-71
2021/06/10 00:53:46;;;;;;;34.97;31.37;;;;;;;;;;5120997;28;20443;-72
2021/06/10 00:56:13;;;;;;;34.43;31.07;;;;;;;;;;5120696;28;20928;-71
2021/06/10 00:58:39;;;;;;;34.40;30.77;;;;;;;;;;5121566;28;20440;-72
2021/06/10 01:01:07;;;;;;;34.43;30.93;;;;;;;;;;5120892;28;20436;-72
2021/06/10 01:03:36;;;;;;;33.47;29.80;;;;;;;;;;5121178;28;20466;-72
2021/06/10 01:06:06;;;;;;;32.20;28.93;;;;;;;;;;5120496;28;20514;-72
2021/06/10 01:08:40;;;;;;;35.60;31.80;;;;;;;;;;5120727;28;20477;-72
2021/06/10 01:11:12;;;;;;;35.23;31.40;;;;;;;;;;5120756;28;20505;-72
2021/06/10 01:13:45;;;;;;;38.07;34.30;;;;;;;;;;5121149;28;20430;-73
2021/06/10 01:16:13;;;;;;;35.50;31.93;;;;;;;;;;5121216;28;20426;-73
2021/06/10 01:18:41;;;;;;;36.40;32.90;;;;;;;;;;5120542;28;20452;-73
2021/06/10 01:21:08;;;;;;;39.50;33.40;;;;;;;;;;5121267;28;20438;-73
2021/06/10 01:23:43;;;;;;;33.93;30.43;;;;;;;;;;5120602;28;20439;-73
2021/06/10 01:26:16;;;;;;;35.57;32.03;;;;;;;;;;5120944;28;20426;-72
2021/06/10 01:28:46;;;;;;;36.33;32.53;;;;;;;;;;5121142;28;20490;-72
2021/06/10 01:31:14;;;;;;;37.20;33.50;;;;;;;;;;5120497;28;20438;-72
2021/06/10 01:33:44;;;;;;;37.73;33.80;;;;;;;;;;5120479;28;20511;-72
2021/06/10 01:36:12;;;;;;;40.77;36.57;;;;;;;;;;5120134;28;20958;-72
2021/06/10 01:38:39;;;;;;;40.20;36.00;;;;;;;;;;5120305;28;20455;-72
2021/06/10 01:41:06;;;;;;;41.60;37.50;;;;;;;;;;5120896;28;20467;-72
2021/06/10 01:43:36;;;;;;;42.50;38.10;;;;;;;;;;5120794;28;20522;-72
2021/06/10 01:46:05;;;;;;;43.20;38.67;;;;;;;;;;5120066;28;20522;-74
2021/06/10 01:48:32;;;;;;;43.80;38.73;;;;;;;;;;5120235;28;20481;-72
2021/06/10 01:51:00;;;;;;;43.00;38.07;;;;;;;;;;5120000;28;20959;-72
2021/06/10 01:53:27;;;;;;;43.20;38.90;;;;;;;;;;5120013;28;20526;-73
2021/06/10 01:55:54;;;;;;;41.50;37.50;;;;;;;;;;5120262;28;20438;-73
2021/06/10 01:58:21;;;;;;;43.87;39.37;;;;;;;;;;5119946;28;20450;-72
2021/06/10 02:00:48;;;;;;;42.37;38.37;;;;;;;;;;5116706;28;20442;-73
2021/06/10 02:03:17;;;;;;;42.50;38.03;;;;;;;;;;5117039;28;20439;-73
2021/06/10 02:05:44;;;;;;;41.80;37.50;;;;;;;;;;5117771;28;20758;-72
2021/06/10 02:08:11;;;;;;;42.50;38.07;;;;;;;;;;5116962;28;20489;-72
2021/06/10 02:10:38;;;;;;;42.53;37.43;;;;;;;;;;5117226;28;20443;-72
2021/06/10 02:13:05;;;;;;;44.03;39.30;;;;;;;;;;5117509;28;20461;-72
2021/06/10 02:15:32;;;;;;;40.63;36.73;;;;;;;;;;5116808;28;20534;-72
2021/06/10 02:17:59;;;;;;;45.40;40.70;;;;;;;;;;5116398;28;20457;-73
2021/06/10 02:20:27;;;;;;;41.77;37.57;;;;;;;;;;5117579;28;20470;-72
2021/06/10 02:22:54;;;;;;;44.73;40.13;;;;;;;;;;5116651;28;20780;-74
2021/06/10 02:25:21;;;;;;;45.03;39.07;;;;;;;;;;5116620;28;20443;-73
2021/06/10 02:27:48;;;;;;;48.03;39.30;;;;;;;;;;5116776;28;20482;-73
2021/06/10 02:30:16;;;;;;;42.00;37.80;;;;;;;;;;5116544;28;20814;-73
2021/06/10 02:32:42;;;;;;;43.70;39.00;;;;;;;;;;5116506;28;20514;-73
2021/06/10 02:35:10;;;;;;;44.87;39.60;;;;;;;;;;5116157;28;20441;-73
2021/06/10 02:37:40;;;;;;;43.57;39.07;;;;;;;;;;5120847;28;20435;-73
2021/06/10 02:40:09;;;;;;;44.00;39.53;;;;;;;;;;5117674;28;20443;-73
2021/06/10 02:42:36;;;;;;;50.73;40.50;;;;;;;;;;5116812;28;20443;-73
2021/06/10 02:45:04;;;;;;;44.83;40.20;;;;;;;;;;5116222;28;20435;-73
2021/06/10 02:47:31;;;;;;;45.07;40.57;;;;;;;;;;5116470;28;20439;-73
2021/06/10 02:49:58;;;;;;;45.07;40.63;;;;;;;;;;5115855;28;20962;-74
2021/06/10 02:52:26;;;;;;;45.30;40.33;;;;;;;;;;5116136;28;20882;-73
2021/06/10 02:54:55;;;;;;;50.17;39.60;;;;;;;;;;5116852;28;20461;-73
2021/06/10 02:57:22;;;;;;;44.07;39.53;;;;;;;;;;5116016;28;20772;-73
2021/06/10 02:59:49;;;;;;;45.73;40.97;;;;;;;;;;5115628;28;20534;-73
2021/06/10 03:02:16;;;;;;;48.57;43.43;;;;;;;;;;5116108;28;20916;-73
2021/06/10 03:04:43;;;;;;;47.40;42.07;;;;;;;;;;5116697;28;20465;-73
2021/06/10 03:07:11;;;;;;;47.10;42.17;;;;;;;;;;5115880;28;20453;-74
2021/06/10 03:09:39;;;;;;;48.67;43.23;;;;;;;;;;5115462;28;20474;-74
2021/06/10 03:12:08;;;;;;;46.00;41.20;;;;;;;;;;5115474;28;20450;-74
2021/06/10 03:14:36;;;;;;;48.17;43.27;;;;;;;;;;5115441;28;20526;-75
2021/06/10 03:17:03;;;;;;;49.57;43.43;;;;;;;;;;5115653;28;20443;-74
2021/06/10 03:19:29;;;;;;;49.00;43.67;;;;;;;;;;5115805;28;20998;-74
2021/06/10 03:21:56;;;;;;;49.17;43.83;;;;;;;;;;5115588;28;20525;-74
2021/06/10 03:24:23;;;;;;;52.63;46.80;;;;;;;;;;5115384;28;20466;-73
2021/06/10 03:26:51;;;;;;;53.63;47.20;;;;;;;;;;5115629;28;20466;-74
2021/06/10 03:29:20;;;;;;;51.53;44.33;;;;;;;;;;5115564;28;20976;-74
2021/06/10 03:31:47;;;;;;;48.60;43.37;;;;;;;;;;5115272;28;20443;-73
2021/06/10 03:34:14;;;;;;;48.30;43.20;;;;;;;;;;5115555;28;20465;-73
2021/06/10 03:36:41;;;;;;;48.83;43.07;;;;;;;;;;5115298;28;20996;-74
2021/06/10 03:39:08;;;;;;;50.80;43.40;;;;;;;;;;5114824;28;20584;-74
2021/06/10 03:41:36;;;;;;;47.77;42.50;;;;;;;;;;5115071;28;20473;-73
2021/06/10 03:44:03;;;;;;;47.30;40.20;;;;;;;;;;5115066;28;20443;-73
2021/06/10 03:46:32;;;;;;;46.37;41.43;;;;;;;;;;5115305;28;20439;-73
2021/06/10 03:48:59;;;;;;;52.53;42.70;;;;;;;;;;5114884;28;20470;-73
2021/06/10 03:51:25;;;;;;;49.27;43.73;;;;;;;;;;5114591;28;20924;-74
2021/06/10 03:53:55;;;;;;;48.03;42.93;;;;;;;;;;5115139;28;20944;-74
2021/06/10 03:56:22;;;;;;;44.57;39.53;;;;;;;;;;5115023;28;20489;-74
2021/06/10 03:58:49;;;;;;;46.70;41.70;;;;;;;;;;5114850;28;20442;-74
2021/06/10 04:01:15;;;;;;;47.00;42.03;;;;;;;;;;5114710;28;20431;-74
2021/06/10 04:03:43;;;;;;;46.53;41.63;;;;;;;;;;5114720;28;20453;-74
2021/06/10 04:06:11;;;;;;;51.90;43.83;;;;;;;;;;5115245;28;20450;-74
2021/06/10 04:08:38;;;;;;;48.80;43.50;;;;;;;;;;5114591;28;20474;-73
2021/06/10 04:11:05;;;;;;;48.37;43.37;;;;;;;;;;5114400;28;20499;-74
2021/06/10 04:13:32;;;;;;;49.40;43.80;;;;;;;;;;5114658;28;20435;-74
2021/06/10 04:15:58;;;;;;;47.00;41.90;;;;;;;;;;5114429;28;20439;-73
2021/06/10 04:18:25;;;;;;;45.40;40.80;;;;;;;;;;5115802;28;20531;-73
2021/06/10 04:20:53;;;;;;;49.67;42.60;;;;;;;;;;5114816;28;20785;-73
2021/06/10 04:23:20;;;;;;;47.23;41.13;;;;;;;;;;5114049;28;20423;-73
2021/06/10 04:25:47;;;;;;;48.70;42.80;;;;;;;;;;5114111;28;20461;-73
2021/06/10 04:28:14;;;;;;;49.10;43.77;;;;;;;;;;5117159;27;20570;-74
2021/06/10 04:30:41;;;;;;;50.70;43.57;;;;;;;;;;5122424;27;20483;-73
2021/06/10 04:33:07;;;;;;;50.20;44.47;;;;;;;;;;5113095;28;20443;-72
2021/06/10 04:35:34;;;;;;;48.40;42.97;;;;;;;;;;5113581;28;20440;-73
2021/06/10 04:38:02;;;;;;;48.80;43.57;;;;;;;;;;5114652;28;20454;-72
2021/06/10 04:40:29;;;;;;;49.87;44.57;;;;;;;;;;5113755;28;20459;-73
2021/06/10 04:42:55;;;;;;;49.57;44.47;;;;;;;;;;5114243;28;20445;-73
2021/06/10 04:45:22;;;;;;;52.03;45.50;;;;;;;;;;5113901;28;20525;-72
2021/06/10 04:47:49;;;;;;;48.43;43.40;;;;;;;;;;5113828;28;20482;-73
2021/06/10 04:50:16;;;;;;;47.87;41.43;;;;;;;;;;5114098;28;20461;-73
2021/06/10 04:52:43;;;;;;;49.50;44.07;;;;;;;;;;5113791;28;20435;-74
2021/06/10 04:55:11;;;;;;;50.37;43.40;;;;;;;;;;5113586;28;20441;-73
2021/06/10 04:57:38;;;;;;;49.30;43.80;;;;;;;;;;5116098;28;20486;-74
2021/06/10 05:00:06;;;;;;;50.73;45.20;;;;;;;;;;5133610;28;20987;-72
2021/06/10 05:02:32;;;;;;;51.90;46.40;;;;;;;;;;5134424;28;21010;-73
2021/06/10 05:04:59;;;;;;;53.03;46.57;;;;;;;;;;5134552;28;20524;-74
2021/06/10 05:07:26;;;;;;;51.73;46.27;;;;;;;;;;5134280;28;20446;-74
2021/06/10 05:09:53;;;;;;;49.20;42.80;;;;;;;;;;5134030;28;20470;-73
2021/06/10 05:12:21;;;;;;;49.30;43.90;;;;;;;;;;5134374;28;20433;-73
2021/06/10 05:14:48;;;;;;;48.37;43.37;;;;;;;;;;5134029;28;20436;-73
2021/06/10 05:17:14;;;;;;;48.07;42.90;;;;;;;;;;5134010;28;20438;-73
2021/06/10 05:19:41;;;;;;;47.80;41.97;;;;;;;;;;5134004;28;20529;-74
2021/06/10 05:22:08;;;;;;;45.87;41.00;;;;;;;;;;5134246;28;20483;-73
2021/06/10 05:24:34;;;;;;;47.40;38.40;;;;;;;;;;5134265;28;20529;-74
2021/06/10 05:27:01;;;;;;;43.70;33.93;;;;;;;;;;5134151;27;20469;-74
2021/06/10 05:29:29;;;;;;;39.23;34.90;;;;;;;;;;5114596;28;20986;-74
2021/06/10 05:31:56;;;;;;;39.60;35.00;;;;;;;;;;5112131;28;20913;-74
2021/06/10 05:34:23;;;;;;;38.03;33.93;;;;;;;;;;5113651;28;20446;-74
2021/06/10 05:36:50;;;;;;;42.87;36.60;;;;;;;;;;5116719;28;20529;-77
2021/06/10 05:39:16;;;;;;;38.93;34.50;;;;;;;;;;5117912;28;20541;-71
2021/06/10 05:41:44;;;;;;;40.23;35.13;;;;;;;;;;5117312;28;20442;-71
2021/06/10 05:44:11;;;;;;;39.63;34.70;;;;;;;;;;5117075;28;20447;-71
2021/06/10 05:46:39;;;;;;;41.20;35.20;;;;;;;;;;5117295;28;20430;-70
2021/06/10 05:49:06;;;;;;;40.33;36.13;;;;;;;;;;5116937;28;20475;-71
2021/06/10 05:51:33;;;;;;;39.87;34.97;;;;;;;;;;5117356;28;20453;-70
2021/06/10 05:54:00;;;;;;;41.87;36.80;;;;;;;;;;5116875;28;20443;-70
2021/06/10 05:56:26;;;;;;;39.50;33.67;;;;;;;;;;5117112;28;20516;-70
2021/06/10 05:58:53;;;;;;;44.80;37.20;;;;;;;;;;5117266;28;20490;-70
2021/06/10 06:01:20;;;;;;;37.30;32.33;;;;;;;;;;5117025;28;20435;-70
2021/06/10 06:03:48;;;;;;;42.53;34.27;;;;;;;;;;5116687;28;20496;-70
2021/06/10 06:06:17;;;;;;;42.37;36.03;;;;;;;;;;5117108;28;20527;-71
2021/06/10 06:08:44;;;;;;;38.43;33.60;;;;;;;;;;5116966;28;20578;-70
2021/06/10 06:11:11;;;;;;;34.80;31.00;;;;;;;;;;5117259;28;20441;-70
2021/06/10 06:13:45;;;;;;;34.53;30.20;;;;;;;;;;5116546;28;20924;-71
2021/06/10 06:16:14;;;;;;;41.27;32.07;;;;;;;;;;5117370;28;20439;-70
2021/06/10 06:18:40;;;;;;;34.27;29.80;;;;;;;;;;5117138;28;20434;-71
2021/06/10 06:21:08;;;;;;;33.40;29.80;;;;;;;;;;5116600;28;20440;-70
2021/06/10 06:23:35;;;;;;;36.60;32.40;;;;;;;;;;5116319;28;20450;-70
2021/06/10 06:26:02;;;;;;;35.17;31.47;;;;;;;;;;5116510;28;20483;-70
2021/06/10 06:28:29;;;;;;;31.83;28.53;;;;;;;;;;5115941;28;20488;-70
2021/06/10 06:30:56;;;;;;;33.83;30.40;;;;;;;;;;5116502;28;20577;-71
2021/06/10 06:33:22;;;;;;;32.00;28.50;;;;;;;;;;5116124;28;20439;-70
2021/06/10 06:35:49;;;;;;;31.40;26.77;;;;;;;;;;5116392;28;20438;-70
2021/06/10 06:38:17;;;;;;;32.63;29.20;;;;;;;;;;5116364;28;20538;-70
2021/06/10 06:40:44;;;;;;;32.43;28.33;;;;;;;;;;5116240;28;20944;-70
2021/06/10 06:43:11;;;;;;;31.87;28.60;;;;;;;;;;5116285;28;20514;-70
2021/06/10 06:45:38;;;;;;;32.13;26.87;;;;;;;;;;5115950;28;20484;-70
2021/06/10 06:48:05;;;;;;;30.60;26.43;;;;;;;;;;5115734;28;20588;-70
2021/06/10 06:50:32;;;;;;;28.70;25.40;;;;;;;;;;5115823;28;20936;-70
2021/06/10 06:52:59;;;;;;;27.23;23.70;;;;;;;;;;5116402;28;20537;-70
2021/06/10 06:55:27;;;;;;;23.73;21.33;;;;;;;;;;5116530;28;20439;-70
2021/06/10 06:57:54;;;;;;;25.53;22.90;;;;;;;;;;5115736;28;20480;-71
2021/06/10 07:00:21;;;;;;;27.73;23.30;;;;;;;;;;5116427;28;20475;-70
2021/06/10 07:02:48;;;;;;;25.50;22.90;;;;;;;;;;5116102;28;20498;-70
2021/06/10 07:05:15;;;;;;;23.70;20.20;;;;;;;;;;5115513;28;20950;-70
2021/06/10 07:07:42;;;;;;;22.33;19.97;;;;;;;;;;5115782;28;20480;-70
2021/06/10 07:10:09;;;;;;;21.47;19.30;;;;;;;;;;5115311;28;20478;-70
2021/06/10 07:12:37;;;;;;;20.30;17.87;;;;;;;;;;5115351;28;20468;-70
2021/06/10 07:15:05;;;;;;;19.80;17.80;;;;;;;;;;5115344;28;20922;-70
2021/06/10 07:17:32;;;;;;;17.40;15.47;;;;;;;;;;5115243;28;20933;-70
2021/06/10 07:20:00;;;;;;;16.00;14.33;;;;;;;;;;5115558;28;20447;-70
2021/06/10 07:22:27;;;;;;;18.53;16.53;;;;;;;;;;5115154;28;20451;-71
2021/06/10 07:24:54;;;;;;;18.10;16.37;;;;;;;;;;5115222;28;20439;-70
2021/06/10 07:27:20;;;;;;;16.50;14.50;;;;;;;;;;5114903;28;20475;-70
2021/06/10 07:29:48;;;;;;;15.80;14.30;;;;;;;;;;5115493;28;20479;-70
2021/06/10 07:32:15;;;;;;;16.13;13.37;;;;;;;;;;5114945;28;20532;-70
2021/06/10 07:34:42;;;;;;;14.40;12.73;;;;;;;;;;5115590;28;20456;-70
2021/06/10 07:37:09;;;;;;;14.43;12.93;;;;;;;;;;5114996;28;20515;-70
2021/06/10 07:39:36;;;;;;;14.00;12.60;;;;;;;;;;5114876;28;20544;-70
2021/06/10 07:42:03;;;;;;;13.47;12.00;;;;;;;;;;5114767;28;20922;-71
2021/06/10 07:44:30;;;;;;;12.27;10.93;;;;;;;;;;5114946;28;20436;-70
2021/06/10 07:46:58;;;;;;;12.67;11.43;;;;;;;;;;5114953;28;20450;-70
2021/06/10 07:49:25;;;;;;;9.90;9.00;;;;;;;;;;5114889;28;20473;-71
2021/06/10 07:51:51;;;;;;;9.00;7.37;;;;;;;;;;5114561;28;20554;-71
2021/06/10 07:54:18;;;;;;;8.50;7.50;;;;;;;;;;5114640;28;20474;-70
2021/06/10 07:56:45;;;;;;;9.93;7.70;;;;;;;;;;5114473;28;20479;-70
2021/06/10 07:59:13;;;;;;;9.30;8.03;;;;;;;;;;5113694;28;20519;-69
2021/06/10 08:01:40;;;;;;;7.93;7.13;;;;;;;;;;5114655;28;20444;-69
2021/06/10 08:04:08;;;;;;;7.93;6.40;;;;;;;;;;5114217;28;20476;-69
2021/06/10 08:06:34;;;;;;;8.30;7.50;;;;;;;;;;5114585;28;20537;-69
2021/06/10 08:09:02;;;;;;;7.77;6.97;;;;;;;;;;5114729;28;20480;-70
2021/06/10 08:11:29;;;;;;;8.53;7.63;;;;;;;;;;5114732;28;20953;-70
2021/06/10 08:13:56;;;;;;;7.93;7.13;;;;;;;;;;5114437;28;20542;-70
2021/06/10 08:16:23;;;;;;;8.43;7.20;;;;;;;;;;5114420;28;20791;-71
2021/06/10 08:18:49;;;;;;;7.70;6.70;;;;;;;;;;5115060;28;20485;-70
2021/06/10 08:21:18;;;;;;;7.77;6.47;;;;;;;;;;5114314;28;20520;-69
2021/06/10 08:23:44;;;;;;;8.00;7.30;;;;;;;;;;5114259;28;20446;-70
2021/06/10 08:26:11;;;;;;;7.37;5.93;;;;;;;;;;5114000;28;20923;-70
2021/06/10 08:28:38;;;;;;;8.47;7.10;;;;;;;;;;5113664;28;20622;-70
2021/06/10 08:31:04;;;;;;;9.60;6.20;;;;;;;;;;5114444;28;20443;-70
2021/06/10 08:33:33;;;;;;;7.60;6.60;;;;;;;;;;5114514;28;20441;-70
2021/06/10 08:36:00;;;;;;;7.53;6.83;;;;;;;;;;5113841;28;20535;-70
2021/06/10 08:38:28;;;;;;;7.73;7.03;;;;;;;;;;5114024;28;20923;-70
2021/06/10 08:40:55;;;;;;;8.53;7.53;;;;;;;;;;5114148;28;20481;-69
2021/06/10 08:43:22;;;;;;;8.63;6.80;;;;;;;;;;5114196;28;20446;-70
2021/06/10 08:45:56;;;;;;;8.27;6.60;;;;;;;;;;5114127;28;20979;-70
2021/06/10 08:48:23;;;;;;;7.83;7.03;;;;;;;;;;5113671;28;20469;-70
2021/06/10 08:50:50;;;;;;;7.53;6.60;;;;;;;;;;5113695;28;20449;-70
2021/06/10 08:53:17;;;;;;;9.10;7.93;;;;;;;;;;5114052;28;20486;-70
2021/06/10 08:55:45;;;;;;;8.77;7.00;;;;;;;;;;5113705;28;20442;-70
2021/06/10 08:58:12;;;;;;;11.07;8.10;;;;;;;;;;5113639;28;20495;-70
2021/06/10 09:00:39;;;;;;;9.30;8.20;;;;;;;;;;5114026;28;20809;-70
2021/06/10 09:03:07;;;;;;;9.27;8.37;;;;;;;;;;5113623;28;20486;-70
2021/06/10 09:05:33;;;;;;;8.97;8.10;;;;;;;;;;5113979;28;20751;-70
2021/06/10 09:08:01;;;;;;;8.87;7.47;;;;;;;;;;5113640;28;20813;-71
2021/06/10 09:10:29;;;;;;;9.13;7.90;;;;;;;;;;5116509;28;20449;-70
2021/06/10 09:12:58;;;;;;;9.23;7.23;;;;;;;;;;5118954;28;20438;-70
2021/06/10 09:15:26;;;;;;;8.70;8.00;;;;;;;;;;5118332;28;20444;-70
2021/06/10 09:17:54;;;;;;;8.10;7.40;;;;;;;;;;5117878;28;20445;-70
2021/06/10 09:20:28;;;;;;;10.50;7.70;;;;;;;;;;5117904;28;20472;-70
2021/06/10 09:23:08;;;;;;;8.30;7.10;;;;;;;;;;5117715;28;20449;-70
2021/06/10 09:25:35;;;;;;;10.53;6.40;;;;;;;;;;5117950;28;20431;-70
2021/06/10 09:28:05;;;;;;;8.47;6.70;;;;;;;;;;5118052;28;20473;-71
2021/06/10 09:30:32;;;;;;;11.13;6.93;;;;;;;;;;5118504;28;20458;-70
2021/06/10 09:33:00;;;;;;;10.30;7.47;;;;;;;;;;5117642;28;20819;-70
2021/06/10 09:35:27;;;;;;;8.37;6.97;;;;;;;;;;5117254;28;20478;-70
2021/06/10 09:37:57;;;;;;;11.30;7.30;;;;;;;;;;5117785;28;20437;-70
2021/06/10 09:40:24;;;;;;;10.83;6.40;;;;;;;;;;5117544;28;20471;-71
2021/06/10 09:42:51;;;;;;;10.80;7.40;;;;;;;;;;5117453;28;20478;-71
2021/06/10 09:45:20;;;;;;;8.67;6.00;;;;;;;;;;5117043;28;21030;-70
2021/06/10 09:47:50;;;;;;;8.07;6.40;;;;;;;;;;5117761;28;20451;-70
2021/06/10 09:50:18;;;;;;;9.10;6.73;;;;;;;;;;5117350;28;20524;-70
2021/06/10 09:52:46;;;;;;;7.73;5.83;;;;;;;;;;5117286;28;20438;-70
2021/06/10 09:55:25;;;;;;;8.03;5.57;;;;;;;;;;5116867;28;20987;-70
2021/06/10 09:57:52;;;;;;;6.70;6.10;;;;;;;;;;5117356;28;20513;-70
2021/06/10 10:00:24;;;;;;;7.77;6.77;;;;;;;;;;5117124;28;20507;-70
2021/06/10 10:02:51;;;;;;;7.07;6.37;;;;;;;;;;5117918;28;20427;-70
2021/06/10 10:05:21;;;;;;;10.03;6.07;;;;;;;;;;5116682;28;20986;-70
2021/06/10 10:07:48;;;;;;;6.50;5.57;;;;;;;;;;5117602;28;20435;-70
2021/06/10 10:10:15;;;;;;;9.67;7.47;;;;;;;;;;5117312;28;20478;-69
2021/06/10 10:12:44;;;;;;;6.50;5.90;;;;;;;;;;5116562;28;20446;-70
2021/06/10 10:15:12;;;;;;;9.53;5.90;;;;;;;;;;5116848;28;20434;-70
2021/06/10 10:17:41;;;;;;;8.60;6.23;;;;;;;;;;5117176;28;20446;-70
2021/06/10 10:20:09;;;;;;;7.83;7.20;;;;;;;;;;5116829;28;20454;-70
2021/06/10 10:22:36;;;;;;;23.67;6.77;;;;;;;;;;5115271;28;20439;-70
2021/06/10 10:25:04;;;;;;;11.33;5.60;;;;;;;;;;5117072;28;20442;-70
2021/06/10 10:27:31;;;;;;;9.17;5.80;;;;;;;;;;5116609;28;20502;-70
2021/06/10 10:29:58;;;;;;;6.30;5.70;;;;;;;;;;5116378;28;20472;-70
2021/06/10 10:32:25;;;;;;;9.00;5.70;;;;;;;;;;5116213;28;20982;-69
2021/06/10 10:34:54;;;;;;;5.37;4.90;;;;;;;;;;5116498;28;20459;-70
2021/06/10 10:37:24;;;;;;;7.03;5.90;;;;;;;;;;5116582;28;20443;-69
2021/06/10 10:39:53;;;;;;;6.33;5.50;;;;;;;;;;5115946;28;20924;-71
2021/06/10 10:42:27;;;;;;;5.17;4.63;;;;;;;;;;5115945;28;20446;-70
2021/06/10 10:45:14;;;;;;;5.70;5.20;;;;;;;;;;5115894;28;20438;-70
2021/06/10 10:47:45;;;;;;;5.80;5.30;;;;;;;;;;5117287;28;20486;-70
2021/06/10 10:50:18;;;;;;;7.30;5.23;;;;;;;;;;5116381;28;20539;-70
2021/06/10 10:52:55;;;;;;;6.10;5.50;;;;;;;;;;5116696;28;20457;-70
2021/06/10 10:55:27;;;;;;;8.67;6.20;;;;;;;;;;5115887;28;20931;-70
2021/06/10 10:57:58;;;;;;;5.73;5.10;;;;;;;;;;5116461;28;20825;-70
2021/06/10 11:00:44;;;;;;;5.43;4.87;;;;;;;;;;5115640;28;20431;-69
2021/06/10 11:03:18;;;;;;;5.70;4.93;;;;;;;;;;5115906;28;20442;-69
2021/06/10 11:05:47;;;;;;;5.70;5.20;;;;;;;;;;5116599;28;20442;-70
2021/06/10 11:08:14;;;;;;;5.73;5.23;;;;;;;;;;5115641;28;20530;-70
2021/06/10 11:10:59;;;;;;;11.00;5.10;;;;;;;;;;5116134;28;20494;-70
2021/06/10 11:13:26;;;;;;;7.60;6.70;;;;;;;;;;5115472;28;20421;-69
2021/06/10 11:15:54;;;;;;;5.43;4.93;;;;;;;;;;5115260;28;20525;-69
2021/06/10 11:18:39;;;;;;;7.23;6.63;;;;;;;;;;5115801;28;20439;-69
2021/06/10 11:21:07;;;;;;;4.93;4.43;;;;;;;;;;5115508;28;20475;-70
2021/06/10 11:23:34;;;;;;;6.13;5.40;;;;;;;;;;5115049;28;20485;-70
2021/06/10 11:26:03;;;;;;;4.90;4.50;;;;;;;;;;5115394;28;20489;-70
2021/06/10 11:28:30;;;;;;;10.60;5.80;;;;;;;;;;5115654;28;20525;-70
2021/06/10 11:31:12;;;;;;;6.77;5.30;;;;;;;;;;5114958;28;20573;-70
2021/06/10 11:33:38;;;;;;;10.50;5.30;;;;;;;;;;5115402;28;20440;-70
2021/06/10 11:36:07;;;;;;;5.93;5.40;;;;;;;;;;5114870;28;20436;-69
2021/06/10 11:38:38;;;;;;;5.03;4.50;;;;;;;;;;5115307;28;20480;-70
2021/06/10 11:41:06;;;;;;;7.20;5.17;;;;;;;;;;5115661;28;20459;-70
2021/06/10 11:43:34;;;;;;;5.20;4.80;;;;;;;;;;5114727;28;20483;-70
2021/06/10 11:46:01;;;;;;;7.00;5.10;;;;;;;;;;5115038;28;20444;-70
2021/06/10 11:48:35;;;;;;;6.63;5.77;;;;;;;;;;5114871;28;20523;-70
2021/06/10 11:51:02;;;;;;;5.20;4.70;;;;;;;;;;5114997;28;20431;-70
2021/06/10 11:53:31;;;;;;;5.53;5.13;;;;;;;;;;5114717;28;20452;-69
2021/06/10 11:55:58;;;;;;;5.10;4.60;;;;;;;;;;5114841;28;20440;-69
2021/06/10 11:58:26;;;;;;;5.13;4.63;;;;;;;;;;5114488;28;20968;-71
2021/06/10 12:00:53;;;;;;;9.27;4.30;;;;;;;;;;5115373;28;20434;-70
2021/06/10 12:03:20;;;;;;;6.03;4.77;;;;;;;;;;5114841;28;20458;-70
2021/06/10 12:05:48;;;;;;;6.10;5.57;;;;;;;;;;5114847;28;20803;-70
2021/06/10 12:08:25;;;;;;;7.37;4.37;;;;;;;;;;5114259;28;20486;-70
2021/06/10 12:10:54;;;;;;;5.73;5.23;;;;;;;;;;5114460;28;20445;-70
2021/06/10 12:13:27;;;;;;;5.87;5.37;;;;;;;;;;5114525;28;20439;-70
2021/06/10 12:15:54;;;;;;;6.40;5.90;;;;;;;;;;5114666;28;20522;-70
2021/06/10 12:18:21;;;;;;;6.63;5.53;;;;;;;;;;5114437;28;20471;-70
2021/06/10 12:20:49;;;;;;;7.97;5.53;;;;;;;;;;5114150;28;20475;-70
2021/06/10 12:23:17;;;;;;;5.90;5.30;;;;;;;;;;5114168;28;20441;-70
2021/06/10 12:25:51;;;;;;;6.07;5.57;;;;;;;;;;5115250;28;20450;-70
2021/06/10 12:28:30;;;;;;;5.87;5.40;;;;;;;;;;5113386;28;20494;-70
2021/06/10 12:31:01;;;;;;;6.93;5.10;;;;;;;;;;5114001;28;20768;-70
2021/06/10 12:33:27;;;;;;;6.13;5.63;;;;;;;;;;5114206;28;20536;-70
2021/06/10 12:35:56;;;;;;;5.43;4.93;;;;;;;;;;5114136;28;20511;-70
2021/06/10 12:38:27;;;;;;;9.20;5.77;;;;;;;;;;5113614;28;20448;-75
2021/06/10 12:40:54;;;;;;;6.23;4.60;;;;;;;;;;5113913;28;20485;-73
2021/06/10 12:43:23;;;;;;;5.97;5.47;;;;;;;;;;5113794;28;20477;-73
2021/06/10 12:46:02;;;;;;;5.10;4.70;;;;;;;;;;5113609;28;20544;-73
2021/06/10 12:48:29;;;;;;;4.77;4.37;;;;;;;;;;5114287;28;20895;-74
2021/06/10 12:51:14;;;;;;;6.63;5.87;;;;;;;;;;5113589;28;20430;-73
2021/06/10 12:53:52;;;;;;;8.27;6.30;;;;;;;;;;5114108;28;20496;-73
2021/06/10 12:56:27;;;;;;;5.93;5.27;;;;;;;;;;5113933;28;20514;-73
2021/06/10 12:58:54;;;;;;;6.73;6.23;;;;;;;;;;5114134;28;20403;-74
2021/06/10 13:01:22;;;;;;;7.13;5.63;;;;;;;;;;5115488;28;20423;-73
2021/06/10 13:03:52;;;;;;;6.93;6.27;;;;;;;;;;5120265;28;20783;-73
2021/06/10 13:06:22;;;;;;;8.40;5.80;;;;;;;;;;5112954;28;20446;-73
2021/06/10 13:08:49;;;;;;;5.40;5.00;;;;;;;;;;5113720;28;20474;-73
2021/06/10 13:11:16;;;;;;;5.80;5.37;;;;;;;;;;5113338;28;20593;-73
2021/06/10 13:13:43;;;;;;;6.30;5.80;;;;;;;;;;5113496;28;20827;-73
2021/06/10 13:16:13;;;;;;;6.50;5.97;;;;;;;;;;5113283;28;20785;-73
2021/06/10 13:18:41;;;;;;;7.13;5.60;;;;;;;;;;5113554;28;20416;-73
2021/06/10 13:21:17;;;;;;;7.30;6.63;;;;;;;;;;5113693;28;20413;-73
2021/06/10 13:23:47;;;;;;;5.90;5.30;;;;;;;;;;5113371;28;20491;-73
2021/06/10 13:26:16;;;;;;;5.60;5.20;;;;;;;;;;5113116;28;20538;-73
2021/06/10 13:28:43;;;;;;;6.50;5.57;;;;;;;;;;5113815;28;20449;-73
2021/06/10 13:31:14;;;;;;;11.33;6.03;;;;;;;;;;5113005;28;20437;-73
2021/06/10 13:33:43;;;;;;;6.60;6.00;;;;;;;;;;5113456;28;20475;-73
2021/06/10 13:36:15;;;;;;;6.47;5.97;;;;;;;;;;5113514;28;20789;-73
2021/06/10 13:38:42;;;;;;;5.80;5.40;;;;;;;;;;5114147;28;20469;-74
2021/06/10 13:41:12;;;;;;;7.00;6.50;;;;;;;;;;5113692;28;20440;-73
2021/06/10 13:43:39;;;;;;;6.30;5.77;;;;;;;;;;5113115;28;20414;-73
2021/06/10 13:46:06;;;;;;;6.87;6.27;;;;;;;;;;5113147;28;20449;-73
2021/06/10 13:48:33;;;;;;;5.33;4.83;;;;;;;;;;5113346;28;20816;-73
2021/06/10 13:51:02;;;;;;;6.23;5.00;;;;;;;;;;5113391;28;20537;-74
2021/06/10 13:53:29;;;;;;;5.13;4.77;;;;;;;;;;5113064;28;20504;-70
2021/06/10 13:55:56;;;;;;;5.37;4.87;;;;;;;;;;5115017;28;20443;-76
2021/06/10 13:58:23;;;;;;;4.57;4.20;;;;;;;;;;5119635;28;20483;-77
2021/06/10 14:00:50;;;;;;;5.53;5.10;;;;;;;;;;5117075;28;20475;-74
2021/06/10 14:03:19;;;;;;;5.03;4.40;;;;;;;;;;5116934;28;20860;-73
2021/06/10 14:05:46;;;;;;;5.10;4.70;;;;;;;;;;5117051;28;20945;-73
2021/06/10 14:08:14;;;;;;;5.00;4.50;;;;;;;;;;5116573;28;20474;-74
2021/06/10 14:10:40;;;;;;;5.20;4.73;;;;;;;;;;5116195;28;20974;-73
2021/06/10 14:13:07;;;;;;;5.40;4.43;;;;;;;;;;5116048;28;20419;-74
2021/06/10 14:15:34;;;;;;;6.00;5.40;;;;;;;;;;5116450;28;20448;-75
2021/06/10 14:18:01;;;;;;;5.20;4.70;;;;;;;;;;5116694;28;20468;-75
2021/06/10 14:20:28;;;;;;;4.90;4.50;;;;;;;;;;5116658;28;20515;-75
2021/06/10 14:22:54;;;;;;;6.80;4.93;;;;;;;;;;5117265;28;20528;-76
2021/06/10 14:25:22;;;;;;;10.17;5.70;;;;;;;;;;5116198;28;20448;-74
2021/06/10 14:27:54;;;;;;;5.30;4.80;;;;;;;;;;5116210;28;20564;-76
2021/06/10 14:30:26;;;;;;;5.47;4.90;;;;;;;;;;5115802;28;20453;-75
2021/06/10 14:32:54;;;;;;;5.53;4.87;;;;;;;;;;5116574;28;20437;-75
2021/06/10 14:35:20;;;;;;;4.40;4.00;;;;;;;;;;5116324;28;20520;-75